SWA3469 KMSP-KSTL
Flight info
| Callsign | SWA3469 |
|---|---|
| Flight time | 1h 8m |
| Altitude | 39000 |
| Route | RST1 ALO GUZIK LORLE3 |
| Aircraft | B737/M-SDE2E3FGHIRWXY/LB1 |
Departure
| Time | 2026-05-05 23:59 |
|---|---|
| Airport | Minneapolis–Saint Paul International Airport / Wold–Chamberlain Field (KMSP) |
Arrival
| Time | 2026-05-06 01:07 |
|---|---|
| Airport | St. Louis Lambert International Airport (KSTL) |
| Time | Latitude | Longitude | Altitude | Speed | Heading |
|---|---|---|---|---|---|
| 2026-05-05 23:34 | 44.87581 | -93.22735 | 849 ft | 0 kts | 135° |
| 2026-05-05 23:48 | 44.87588 | -93.22744 | 849 ft | 4 kts | 135° |
| 2026-05-05 23:48 | 44.87607 | -93.22771 | 849 ft | 4 kts | 132° |
| 2026-05-05 23:48 | 44.87623 | -93.22802 | 849 ft | 4 kts | 115° |
| 2026-05-05 23:48 | 44.87630 | -93.22837 | 849 ft | 4 kts | 84° |
| 2026-05-05 23:49 | 44.87629 | -93.22850 | 849 ft | 4 kts | 65° |
| 2026-05-05 23:49 | 44.87621 | -93.22866 | 849 ft | 1 kts | 45° |
| 2026-05-05 23:49 | 44.87620 | -93.22867 | 849 ft | 0 kts | 45° |
| 2026-05-05 23:52 | 44.87621 | -93.22866 | 849 ft | 2 kts | 45° |
| 2026-05-05 23:52 | 44.87666 | -93.22804 | 849 ft | 14 kts | 44° |
| 2026-05-05 23:52 | 44.87734 | -93.22708 | 849 ft | 13 kts | 45° |
| 2026-05-05 23:53 | 44.87798 | -93.22618 | 849 ft | 13 kts | 45° |
| 2026-05-05 23:53 | 44.87859 | -93.22531 | 849 ft | 12 kts | 45° |
| 2026-05-05 23:53 | 44.87918 | -93.22447 | 849 ft | 12 kts | 45° |
| 2026-05-05 23:53 | 44.87974 | -93.22366 | 849 ft | 11 kts | 45° |
| 2026-05-05 23:54 | 44.88027 | -93.22288 | 849 ft | 11 kts | 46° |
| 2026-05-05 23:54 | 44.88083 | -93.22200 | 849 ft | 15 kts | 59° |
| 2026-05-05 23:54 | 44.88066 | -93.22066 | 849 ft | 14 kts | 123° |
| 2026-05-05 23:54 | 44.88015 | -93.21950 | 849 ft | 13 kts | 121° |
| 2026-05-05 23:55 | 44.87951 | -93.21803 | 849 ft | 23 kts | 121° |
| 2026-05-05 23:55 | 44.87864 | -93.21597 | 849 ft | 24 kts | 121° |
| 2026-05-05 23:55 | 44.87781 | -93.21407 | 849 ft | 22 kts | 122° |
| 2026-05-05 23:55 | 44.87701 | -93.21223 | 849 ft | 21 kts | 121° |
| 2026-05-05 23:56 | 44.87626 | -93.21048 | 849 ft | 20 kts | 121° |
| 2026-05-05 23:56 | 44.87555 | -93.20883 | 849 ft | 19 kts | 121° |
| 2026-05-05 23:56 | 44.87487 | -93.20735 | 849 ft | 17 kts | 131° |
| 2026-05-05 23:56 | 44.87426 | -93.20667 | 849 ft | 16 kts | 145° |
| 2026-05-05 23:57 | 44.87350 | -93.20560 | 849 ft | 15 kts | 122° |
| 2026-05-05 23:57 | 44.87297 | -93.20436 | 849 ft | 14 kts | 121° |
| 2026-05-05 23:57 | 44.87250 | -93.20326 | 849 ft | 10 kts | 122° |
| 2026-05-05 23:57 | 44.87245 | -93.20231 | 849 ft | 12 kts | 56° |
| 2026-05-05 23:58 | 44.87329 | -93.20149 | 849 ft | 13 kts | 32° |
| 2026-05-05 23:58 | 44.87385 | -93.20193 | 849 ft | 14 kts | 301° |
| 2026-05-05 23:58 | 44.87528 | -93.20524 | 849 ft | 73 kts | 301° |
| 2026-05-05 23:58 | 44.87905 | -93.21398 | 850 ft | 134 kts | 301° |
| 2026-05-05 23:59 | 44.88441 | -93.22659 | 1158 ft | 159 kts | 301° |
| 2026-05-05 23:59 | 44.88870 | -93.24128 | 1885 ft | 164 kts | 282° |
| 2026-05-05 23:59 | 44.88779 | -93.25690 | 2798 ft | 158 kts | 262° |
| 2026-05-05 23:59 | 44.88512 | -93.27261 | 3375 ft | 173 kts | 260° |
| 2026-05-06 00:00 | 44.88217 | -93.29023 | 3734 ft | 196 kts | 259° |
| 2026-05-06 00:00 | 44.87502 | -93.30839 | 4052 ft | 227 kts | 226° |
| 2026-05-06 00:00 | 44.85985 | -93.31752 | 4550 ft | 259 kts | 190° |
| 2026-05-06 00:00 | 44.84132 | -93.31497 | 5390 ft | 273 kts | 172° |
| 2026-05-06 00:01 | 44.82254 | -93.30879 | 6403 ft | 279 kts | 169° |
| 2026-05-06 00:01 | 44.80401 | -93.29967 | 7393 ft | 285 kts | 159° |
| 2026-05-06 00:01 | 44.78595 | -93.28781 | 8376 ft | 289 kts | 157° |
| 2026-05-06 00:01 | 44.76772 | -93.27529 | 9295 ft | 294 kts | 156° |
| 2026-05-06 00:02 | 44.74907 | -93.26250 | 10166 ft | 300 kts | 157° |
| 2026-05-06 00:02 | 44.72987 | -93.24934 | 10902 ft | 312 kts | 157° |
| 2026-05-06 00:02 | 44.70983 | -93.23570 | 11365 ft | 333 kts | 157° |
| 2026-05-06 00:02 | 44.68824 | -93.22102 | 11931 ft | 348 kts | 157° |
| 2026-05-06 00:03 | 44.66613 | -93.20601 | 12705 ft | 356 kts | 158° |
| 2026-05-06 00:03 | 44.64333 | -93.19045 | 13586 ft | 361 kts | 158° |
| 2026-05-06 00:03 | 44.62059 | -93.17489 | 14468 ft | 367 kts | 158° |
| 2026-05-06 00:03 | 44.59765 | -93.15854 | 15348 ft | 373 kts | 159° |
| 2026-05-06 00:04 | 44.57453 | -93.14235 | 16324 ft | 374 kts | 160° |
| 2026-05-06 00:04 | 44.55101 | -93.12578 | 17144 ft | 382 kts | 161° |
| 2026-05-06 00:04 | 44.52672 | -93.10896 | 17978 ft | 388 kts | 162° |
| 2026-05-06 00:04 | 44.50272 | -93.09217 | 18812 ft | 393 kts | 163° |
| 2026-05-06 00:05 | 44.45275 | -93.05756 | 20451 ft | 403 kts | 163° |
| 2026-05-06 00:05 | 44.42754 | -93.03998 | 21190 ft | 409 kts | 163° |
| 2026-05-06 00:05 | 44.40196 | -93.02212 | 21923 ft | 413 kts | 164° |
| 2026-05-06 00:06 | 44.37602 | -93.00408 | 22640 ft | 417 kts | 164° |
| 2026-05-06 00:06 | 44.34988 | -92.98596 | 23327 ft | 422 kts | 164° |
| 2026-05-06 00:06 | 44.32336 | -92.96762 | 23981 ft | 427 kts | 165° |
| 2026-05-06 00:06 | 44.29636 | -92.94894 | 24615 ft | 431 kts | 165° |
| 2026-05-06 00:07 | 44.26960 | -92.93045 | 25220 ft | 436 kts | 165° |
| 2026-05-06 00:07 | 44.24240 | -92.91160 | 25855 ft | 439 kts | 165° |
| 2026-05-06 00:07 | 44.21493 | -92.89260 | 26423 ft | 443 kts | 165° |
| 2026-05-06 00:07 | 44.18721 | -92.87349 | 26995 ft | 446 kts | 166° |
| 2026-05-06 00:08 | 44.15930 | -92.85427 | 27555 ft | 449 kts | 166° |
| 2026-05-06 00:08 | 44.13122 | -92.83496 | 28051 ft | 453 kts | 166° |
| 2026-05-06 00:08 | 44.10291 | -92.81547 | 28533 ft | 456 kts | 166° |
| 2026-05-06 00:08 | 44.07430 | -92.79588 | 29006 ft | 460 kts | 166° |
| 2026-05-06 00:09 | 44.04522 | -92.77571 | 29468 ft | 463 kts | 167° |
| 2026-05-06 00:09 | 44.01619 | -92.75574 | 29902 ft | 466 kts | 167° |
| 2026-05-06 00:09 | 43.98701 | -92.73579 | 30333 ft | 469 kts | 167° |
| 2026-05-06 00:09 | 43.95767 | -92.71575 | 30705 ft | 473 kts | 167° |
| 2026-05-06 00:10 | 43.92764 | -92.69531 | 31077 ft | 476 kts | 167° |
| 2026-05-06 00:10 | 43.89772 | -92.67495 | 31384 ft | 481 kts | 167° |
| 2026-05-06 00:10 | 43.86762 | -92.65450 | 31739 ft | 484 kts | 167° |
| 2026-05-06 00:10 | 43.83745 | -92.63399 | 32013 ft | 488 kts | 167° |
| 2026-05-06 00:11 | 43.80628 | -92.61511 | 32347 ft | 480 kts | 173° |
| 2026-05-06 00:11 | 43.77486 | -92.60099 | 32673 ft | 470 kts | 179° |
| 2026-05-06 00:11 | 43.74329 | -92.59138 | 33099 ft | 460 kts | 184° |
| 2026-05-06 00:11 | 43.71183 | -92.58482 | 33428 ft | 455 kts | 187° |
| 2026-05-06 00:12 | 43.68052 | -92.57971 | 33842 ft | 453 kts | 188° |
| 2026-05-06 00:12 | 43.64911 | -92.57475 | 34194 ft | 454 kts | 188° |
| 2026-05-06 00:12 | 43.61777 | -92.56974 | 34545 ft | 454 kts | 188° |
| 2026-05-06 00:12 | 43.58633 | -92.56468 | 34899 ft | 455 kts | 187° |
| 2026-05-06 00:13 | 43.55490 | -92.55959 | 35245 ft | 455 kts | 187° |
| 2026-05-06 00:13 | 43.52342 | -92.55449 | 35580 ft | 455 kts | 187° |
| 2026-05-06 00:13 | 43.49196 | -92.54938 | 35910 ft | 455 kts | 187° |
| 2026-05-06 00:13 | 43.46049 | -92.54427 | 36228 ft | 455 kts | 187° |
| 2026-05-06 00:14 | 43.42943 | -92.53920 | 36538 ft | 456 kts | 186° |
| 2026-05-06 00:14 | 43.39795 | -92.53403 | 36844 ft | 456 kts | 186° |
| 2026-05-06 00:14 | 43.36638 | -92.52887 | 37054 ft | 458 kts | 186° |
| 2026-05-06 00:14 | 43.33430 | -92.52364 | 37355 ft | 458 kts | 186° |
| 2026-05-06 00:15 | 43.30271 | -92.51853 | 37671 ft | 457 kts | 186° |
| 2026-05-06 00:15 | 43.27160 | -92.51347 | 37932 ft | 457 kts | 186° |
| 2026-05-06 00:15 | 43.23946 | -92.50826 | 38174 ft | 458 kts | 186° |
| 2026-05-06 00:15 | 43.20821 | -92.50320 | 38446 ft | 458 kts | 186° |
| 2026-05-06 00:16 | 43.17657 | -92.49808 | 38671 ft | 459 kts | 186° |
| 2026-05-06 00:16 | 43.14478 | -92.49295 | 38882 ft | 460 kts | 186° |
| 2026-05-06 00:16 | 43.11283 | -92.48780 | 38915 ft | 463 kts | 186° |
| 2026-05-06 00:17 | 43.04882 | -92.47749 | 38918 ft | 462 kts | 186° |
| 2026-05-06 00:17 | 42.98513 | -92.46726 | 38918 ft | 461 kts | 186° |
| 2026-05-06 00:18 | 42.92140 | -92.45704 | 38915 ft | 461 kts | 186° |
| 2026-05-06 00:18 | 42.85779 | -92.44682 | 38911 ft | 461 kts | 187° |
| 2026-05-06 00:19 | 42.79387 | -92.43658 | 38906 ft | 462 kts | 187° |
| 2026-05-06 00:19 | 42.73014 | -92.42644 | 38899 ft | 461 kts | 187° |
| 2026-05-06 00:20 | 42.66636 | -92.41632 | 38894 ft | 461 kts | 187° |
| 2026-05-06 00:20 | 42.60264 | -92.40623 | 38891 ft | 461 kts | 187° |
| 2026-05-06 00:21 | 42.53891 | -92.39574 | 38890 ft | 464 kts | 186° |
| 2026-05-06 00:21 | 42.47538 | -92.38086 | 38900 ft | 458 kts | 184° |
| 2026-05-06 00:22 | 42.41339 | -92.36621 | 38901 ft | 447 kts | 184° |
| 2026-05-06 00:22 | 42.35218 | -92.35198 | 38902 ft | 446 kts | 184° |
| 2026-05-06 00:23 | 42.29101 | -92.33789 | 38902 ft | 447 kts | 184° |
| 2026-05-06 00:23 | 42.22977 | -92.32385 | 38901 ft | 446 kts | 184° |
| 2026-05-06 00:24 | 42.16843 | -92.30969 | 38894 ft | 448 kts | 184° |
| 2026-05-06 00:24 | 42.10691 | -92.29556 | 38893 ft | 448 kts | 184° |
| 2026-05-06 00:25 | 42.04549 | -92.28152 | 38893 ft | 448 kts | 184° |
| 2026-05-06 00:25 | 41.98405 | -92.26752 | 38893 ft | 448 kts | 184° |
| 2026-05-06 00:26 | 41.92258 | -92.25354 | 38893 ft | 447 kts | 184° |
| 2026-05-06 00:26 | 41.87160 | -92.24197 | 38896 ft | 447 kts | 184° |
| 2026-05-06 00:27 | 41.80020 | -92.22580 | 38905 ft | 447 kts | 184° |
| 2026-05-06 00:27 | 41.74884 | -92.21419 | 38907 ft | 447 kts | 184° |
| 2026-05-06 00:28 | 41.68749 | -92.20034 | 38900 ft | 447 kts | 184° |
| 2026-05-06 00:28 | 41.62616 | -92.18653 | 38899 ft | 447 kts | 185° |
| 2026-05-06 00:29 | 41.56480 | -92.17274 | 38897 ft | 446 kts | 184° |
| 2026-05-06 00:29 | 41.50381 | -92.15906 | 38897 ft | 444 kts | 185° |
| 2026-05-06 00:30 | 41.44286 | -92.14540 | 38739 ft | 445 kts | 185° |
| 2026-05-06 00:30 | 41.41234 | -92.13858 | 38489 ft | 445 kts | 185° |
| 2026-05-06 00:30 | 41.38182 | -92.13176 | 38239 ft | 444 kts | 185° |
| 2026-05-06 00:30 | 41.35135 | -92.12496 | 37989 ft | 444 kts | 185° |
| 2026-05-06 00:31 | 41.32080 | -92.11815 | 37739 ft | 444 kts | 185° |
| 2026-05-06 00:31 | 41.29038 | -92.11137 | 37489 ft | 442 kts | 185° |
| 2026-05-06 00:31 | 41.26010 | -92.10463 | 37240 ft | 442 kts | 185° |
| 2026-05-06 00:31 | 41.22969 | -92.09787 | 36990 ft | 443 kts | 185° |
| 2026-05-06 00:32 | 41.19872 | -92.09099 | 36734 ft | 443 kts | 186° |
| 2026-05-06 00:32 | 41.16807 | -92.08419 | 36483 ft | 443 kts | 186° |
| 2026-05-06 00:32 | 41.13760 | -92.07747 | 36232 ft | 444 kts | 186° |
| 2026-05-06 00:32 | 41.10704 | -92.07060 | 35984 ft | 448 kts | 186° |
| 2026-05-06 00:33 | 41.07629 | -92.06375 | 35736 ft | 446 kts | 186° |
| 2026-05-06 00:33 | 41.04580 | -92.05701 | 35486 ft | 443 kts | 186° |
| 2026-05-06 00:33 | 41.01551 | -92.05033 | 35219 ft | 442 kts | 186° |
| 2026-05-06 00:33 | 40.98527 | -92.04368 | 34567 ft | 439 kts | 186° |
| 2026-05-06 00:34 | 40.95507 | -92.03703 | 33790 ft | 440 kts | 186° |
| 2026-05-06 00:34 | 40.92497 | -92.03042 | 33120 ft | 438 kts | 186° |
| 2026-05-06 00:34 | 40.89509 | -92.02386 | 32564 ft | 433 kts | 186° |
| 2026-05-06 00:34 | 40.86556 | -92.01738 | 32022 ft | 427 kts | 186° |
| 2026-05-06 00:35 | 40.83630 | -92.01026 | 31462 ft | 431 kts | 181° |
| 2026-05-06 00:35 | 40.80746 | -91.99879 | 31200 ft | 434 kts | 174° |
| 2026-05-06 00:35 | 40.77948 | -91.98308 | 30664 ft | 443 kts | 167° |
| 2026-05-06 00:35 | 40.75233 | -91.96298 | 30258 ft | 455 kts | 161° |
| 2026-05-06 00:36 | 40.72520 | -91.94005 | 29969 ft | 469 kts | 161° |
| 2026-05-06 00:36 | 40.69701 | -91.91793 | 29657 ft | 474 kts | 161° |
| 2026-05-06 00:36 | 40.66855 | -91.89588 | 29335 ft | 470 kts | 162° |
| 2026-05-06 00:36 | 40.64060 | -91.87470 | 29015 ft | 459 kts | 161° |
| 2026-05-06 00:37 | 40.61330 | -91.85374 | 28703 ft | 452 kts | 162° |
| 2026-05-06 00:37 | 40.58599 | -91.83285 | 28400 ft | 456 kts | 161° |
| 2026-05-06 00:37 | 40.55855 | -91.81189 | 28078 ft | 455 kts | 160° |
| 2026-05-06 00:37 | 40.53132 | -91.79099 | 27776 ft | 453 kts | 161° |
| 2026-05-06 00:38 | 40.50422 | -91.77034 | 27464 ft | 447 kts | 161° |
| 2026-05-06 00:38 | 40.47764 | -91.75008 | 27159 ft | 436 kts | 161° |
| 2026-05-06 00:38 | 40.45161 | -91.73034 | 26868 ft | 428 kts | 161° |
| 2026-05-06 00:38 | 40.42607 | -91.71085 | 26581 ft | 422 kts | 161° |
| 2026-05-06 00:39 | 40.40079 | -91.69160 | 26296 ft | 418 kts | 160° |
| 2026-05-06 00:39 | 40.37577 | -91.67252 | 26014 ft | 415 kts | 160° |
| 2026-05-06 00:39 | 40.35096 | -91.65342 | 25732 ft | 412 kts | 160° |
| 2026-05-06 00:39 | 40.32626 | -91.63450 | 25449 ft | 409 kts | 160° |
| 2026-05-06 00:40 | 40.30176 | -91.61582 | 25172 ft | 406 kts | 160° |
| 2026-05-06 00:40 | 40.27713 | -91.59707 | 24892 ft | 402 kts | 160° |
| 2026-05-06 00:40 | 40.25303 | -91.57877 | 24618 ft | 399 kts | 159° |
| 2026-05-06 00:40 | 40.22912 | -91.56064 | 24347 ft | 396 kts | 159° |
| 2026-05-06 00:41 | 40.20538 | -91.54265 | 24077 ft | 393 kts | 159° |
| 2026-05-06 00:41 | 40.18182 | -91.52482 | 23810 ft | 390 kts | 159° |
| 2026-05-06 00:41 | 40.15836 | -91.50708 | 23544 ft | 389 kts | 159° |
| 2026-05-06 00:41 | 40.13499 | -91.48943 | 23278 ft | 388 kts | 159° |
| 2026-05-06 00:42 | 40.11195 | -91.47203 | 23017 ft | 388 kts | 159° |
| 2026-05-06 00:42 | 40.08832 | -91.45421 | 22749 ft | 387 kts | 159° |
| 2026-05-06 00:42 | 40.06505 | -91.43668 | 22485 ft | 386 kts | 159° |
| 2026-05-06 00:42 | 40.04221 | -91.41934 | 22228 ft | 385 kts | 159° |
| 2026-05-06 00:43 | 40.01884 | -91.40163 | 21963 ft | 383 kts | 159° |
| 2026-05-06 00:43 | 39.99607 | -91.38448 | 21705 ft | 382 kts | 159° |
| 2026-05-06 00:43 | 39.97300 | -91.36716 | 21440 ft | 383 kts | 159° |
| 2026-05-06 00:43 | 39.94995 | -91.34989 | 21145 ft | 380 kts | 159° |
| 2026-05-06 00:44 | 39.92706 | -91.33276 | 20804 ft | 380 kts | 159° |
| 2026-05-06 00:44 | 39.90408 | -91.31559 | 20632 ft | 382 kts | 159° |
| 2026-05-06 00:44 | 39.88096 | -91.29831 | 20385 ft | 384 kts | 159° |
| 2026-05-06 00:44 | 39.85778 | -91.28101 | 20131 ft | 383 kts | 159° |
| 2026-05-06 00:45 | 39.83474 | -91.26381 | 19874 ft | 381 kts | 158° |
| 2026-05-06 00:45 | 39.81175 | -91.24666 | 19618 ft | 380 kts | 158° |
| 2026-05-06 00:45 | 39.78883 | -91.22958 | 19361 ft | 379 kts | 158° |
| 2026-05-06 00:45 | 39.76603 | -91.21247 | 19104 ft | 379 kts | 158° |
| 2026-05-06 00:46 | 39.74361 | -91.19451 | 18846 ft | 379 kts | 156° |
| 2026-05-06 00:46 | 39.72139 | -91.17602 | 18587 ft | 378 kts | 155° |
| 2026-05-06 00:46 | 39.69928 | -91.15773 | 18326 ft | 376 kts | 155° |
| 2026-05-06 00:46 | 39.67724 | -91.13937 | 18068 ft | 375 kts | 155° |
| 2026-05-06 00:47 | 39.65529 | -91.12127 | 17836 ft | 373 kts | 155° |
| 2026-05-06 00:47 | 39.63343 | -91.10337 | 17606 ft | 372 kts | 155° |
| 2026-05-06 00:47 | 39.61150 | -91.08550 | 17363 ft | 371 kts | 155° |
| 2026-05-06 00:47 | 39.58967 | -91.06774 | 17116 ft | 369 kts | 155° |
| 2026-05-06 00:48 | 39.56800 | -91.05015 | 16869 ft | 368 kts | 155° |
| 2026-05-06 00:48 | 39.54630 | -91.03256 | 16619 ft | 366 kts | 155° |
| 2026-05-06 00:48 | 39.52473 | -91.01508 | 16371 ft | 365 kts | 155° |
| 2026-05-06 00:48 | 39.50328 | -90.99771 | 16123 ft | 363 kts | 155° |
| 2026-05-06 00:49 | 39.48185 | -90.98036 | 15874 ft | 362 kts | 155° |
| 2026-05-06 00:49 | 39.46056 | -90.96313 | 15628 ft | 361 kts | 155° |
| 2026-05-06 00:49 | 39.43931 | -90.94595 | 15381 ft | 359 kts | 155° |
| 2026-05-06 00:49 | 39.41820 | -90.92885 | 15136 ft | 358 kts | 155° |
| 2026-05-06 00:50 | 39.39718 | -90.91183 | 14893 ft | 356 kts | 155° |
| 2026-05-06 00:50 | 39.37614 | -90.89488 | 14651 ft | 358 kts | 155° |
| 2026-05-06 00:50 | 39.35511 | -90.87780 | 14406 ft | 356 kts | 154° |
| 2026-05-06 00:50 | 39.33409 | -90.86093 | 14163 ft | 354 kts | 155° |
| 2026-05-06 00:51 | 39.31331 | -90.84426 | 13921 ft | 351 kts | 155° |
| 2026-05-06 00:51 | 39.29233 | -90.82683 | 13684 ft | 358 kts | 153° |
| 2026-05-06 00:51 | 39.27123 | -90.80869 | 13430 ft | 359 kts | 153° |
| 2026-05-06 00:51 | 39.25053 | -90.79104 | 13182 ft | 354 kts | 153° |
| 2026-05-06 00:52 | 39.23013 | -90.77370 | 12941 ft | 349 kts | 153° |
| 2026-05-06 00:52 | 39.20999 | -90.75657 | 12702 ft | 345 kts | 153° |
| 2026-05-06 00:52 | 39.18999 | -90.73958 | 12460 ft | 342 kts | 153° |
| 2026-05-06 00:52 | 39.17021 | -90.72279 | 12213 ft | 338 kts | 153° |
| 2026-05-06 00:53 | 39.15094 | -90.70648 | 11993 ft | 326 kts | 153° |
| 2026-05-06 00:53 | 39.13251 | -90.69042 | 11778 ft | 315 kts | 152° |
| 2026-05-06 00:53 | 39.11464 | -90.67476 | 11566 ft | 307 kts | 152° |
| 2026-05-06 00:53 | 39.09709 | -90.65945 | 11360 ft | 302 kts | 152° |
| 2026-05-06 00:54 | 39.07973 | -90.64433 | 11154 ft | 301 kts | 152° |
| 2026-05-06 00:54 | 39.06258 | -90.62942 | 10948 ft | 301 kts | 152° |
| 2026-05-06 00:54 | 39.04522 | -90.61440 | 10746 ft | 301 kts | 151° |
| 2026-05-06 00:54 | 39.02792 | -90.59936 | 10540 ft | 300 kts | 150° |
| 2026-05-06 00:55 | 39.01075 | -90.58429 | 10335 ft | 299 kts | 150° |
| 2026-05-06 00:55 | 38.99362 | -90.56915 | 10130 ft | 296 kts | 149° |
| 2026-05-06 00:55 | 38.97676 | -90.55428 | 9927 ft | 286 kts | 149° |
| 2026-05-06 00:55 | 38.96041 | -90.53990 | 9733 ft | 284 kts | 149° |
| 2026-05-06 00:56 | 38.94410 | -90.52556 | 9539 ft | 284 kts | 149° |
| 2026-05-06 00:56 | 38.92805 | -90.51079 | 9343 ft | 284 kts | 143° |
| 2026-05-06 00:56 | 38.91415 | -90.49281 | 9151 ft | 285 kts | 133° |
| 2026-05-06 00:56 | 38.90247 | -90.47226 | 8954 ft | 285 kts | 125° |
| 2026-05-06 00:57 | 38.89226 | -90.45043 | 8760 ft | 284 kts | 122° |
| 2026-05-06 00:57 | 38.88210 | -90.42891 | 8565 ft | 280 kts | 123° |
| 2026-05-06 00:57 | 38.87193 | -90.40810 | 8375 ft | 270 kts | 124° |
| 2026-05-06 00:57 | 38.86203 | -90.38802 | 8193 ft | 261 kts | 124° |
| 2026-05-06 00:58 | 38.85258 | -90.36883 | 8019 ft | 253 kts | 123° |
| 2026-05-06 00:58 | 38.84338 | -90.35000 | 7802 ft | 248 kts | 123° |
| 2026-05-06 00:58 | 38.83433 | -90.33136 | 7548 ft | 244 kts | 123° |
| 2026-05-06 00:58 | 38.82830 | -90.31901 | 7395 ft | 241 kts | 123° |
| 2026-05-06 00:59 | 38.81946 | -90.30084 | 7119 ft | 239 kts | 123° |
| 2026-05-06 00:59 | 38.81058 | -90.28302 | 6841 ft | 237 kts | 123° |
| 2026-05-06 00:59 | 38.80167 | -90.26522 | 6552 ft | 236 kts | 122° |
| 2026-05-06 00:59 | 38.79286 | -90.24751 | 6256 ft | 235 kts | 122° |
| 2026-05-06 01:00 | 38.78411 | -90.22992 | 5973 ft | 233 kts | 122° |
| 2026-05-06 01:00 | 38.77540 | -90.21248 | 5693 ft | 232 kts | 122° |
| 2026-05-06 01:00 | 38.76665 | -90.19504 | 5427 ft | 230 kts | 121° |
| 2026-05-06 01:00 | 38.75810 | -90.17776 | 5141 ft | 229 kts | 121° |
| 2026-05-06 01:01 | 38.74965 | -90.16064 | 5034 ft | 229 kts | 120° |
| 2026-05-06 01:01 | 38.74143 | -90.14394 | 4969 ft | 229 kts | 120° |
| 2026-05-06 01:01 | 38.73296 | -90.12673 | 4773 ft | 227 kts | 120° |
| 2026-05-06 01:01 | 38.72315 | -90.11088 | 4522 ft | 230 kts | 139° |
| 2026-05-06 01:02 | 38.70819 | -90.10405 | 4253 ft | 234 kts | 177° |
| 2026-05-06 01:02 | 38.69260 | -90.10943 | 4025 ft | 234 kts | 204° |
| 2026-05-06 01:02 | 38.67808 | -90.11893 | 3787 ft | 235 kts | 209° |
| 2026-05-06 01:02 | 38.66551 | -90.13196 | 3526 ft | 231 kts | 230° |
| 2026-05-06 01:03 | 38.65702 | -90.14868 | 3255 ft | 219 kts | 251° |
| 2026-05-06 01:03 | 38.65668 | -90.16719 | 3032 ft | 201 kts | 289° |
| 2026-05-06 01:03 | 38.66204 | -90.18315 | 3004 ft | 194 kts | 301° |
| 2026-05-06 01:03 | 38.66874 | -90.19833 | 3015 ft | 191 kts | 306° |
| 2026-05-06 01:04 | 38.67578 | -90.21248 | 2897 ft | 188 kts | 307° |
| 2026-05-06 01:04 | 38.68272 | -90.22644 | 2655 ft | 184 kts | 307° |
| 2026-05-06 01:04 | 38.68937 | -90.23988 | 2411 ft | 170 kts | 307° |
| 2026-05-06 01:04 | 38.69550 | -90.25226 | 2186 ft | 155 kts | 307° |
| 2026-05-06 01:05 | 38.70100 | -90.26338 | 1997 ft | 141 kts | 308° |
| 2026-05-06 01:05 | 38.70609 | -90.27369 | 1790 ft | 133 kts | 307° |
| 2026-05-06 01:05 | 38.71096 | -90.28355 | 1642 ft | 132 kts | 306° |
| 2026-05-06 01:05 | 38.71589 | -90.29354 | 1473 ft | 134 kts | 306° |
| 2026-05-06 01:06 | 38.72088 | -90.30365 | 1295 ft | 133 kts | 306° |
| 2026-05-06 01:06 | 38.72587 | -90.31379 | 1113 ft | 136 kts | 306° |
| 2026-05-06 01:06 | 38.73088 | -90.32410 | 934 ft | 138 kts | 306° |
| 2026-05-06 01:06 | 38.73598 | -90.33448 | 758 ft | 137 kts | 306° |
| 2026-05-06 01:07 | 38.74100 | -90.34454 | 628 ft | 125 kts | 310° |
| 2026-05-06 01:07 | 38.74487 | -90.35224 | 626 ft | 71 kts | 300° |
| 2026-05-06 01:07 | 38.74659 | -90.35574 | 626 ft | 19 kts | 300° |
| 2026-05-06 01:07 | 38.74652 | -90.35713 | 626 ft | 17 kts | 230° |
| 2026-05-06 01:08 | 38.74615 | -90.35768 | 626 ft | 0 kts | 229° |
| 2026-05-06 01:08 | 38.74589 | -90.35798 | 626 ft | 11 kts | 201° |
| 2026-05-06 01:08 | 38.74522 | -90.35687 | 626 ft | 23 kts | 124° |
| 2026-05-06 01:08 | 38.74436 | -90.35514 | 626 ft | 23 kts | 122° |
| 2026-05-06 01:09 | 38.74355 | -90.35417 | 626 ft | 15 kts | 181° |
| 2026-05-06 01:09 | 38.74221 | -90.35422 | 626 ft | 23 kts | 180° |
| 2026-05-06 01:09 | 38.74068 | -90.35421 | 626 ft | 17 kts | 183° |
| 2026-05-06 01:09 | 38.74047 | -90.35470 | 626 ft | 10 kts | 300° |
| 2026-05-06 01:10 | 38.74107 | -90.35593 | 626 ft | 20 kts | 303° |
| 2026-05-06 01:10 | 38.74181 | -90.35740 | 626 ft | 19 kts | 303° |
| 2026-05-06 01:10 | 38.74197 | -90.35879 | 626 ft | 17 kts | 225° |
| 2026-05-06 01:10 | 38.74143 | -90.35957 | 626 ft | 6 kts | 208° |
| 2026-05-06 01:11 | 38.74138 | -90.35961 | 626 ft | 0 kts | 211° |